sensor_id;sensor_type;location;lat;lon;timestamp;temperature;humidity
11764;DHT22;5939;56.522;14.950;2023-04-06T00:01:07;4.00;99.90
11764;DHT22;5939;56.522;14.950;2023-04-06T00:03:33;4.40;99.90
11764;DHT22;5939;56.522;14.950;2023-04-06T00:05:59;4.00;99.90
11764;DHT22;5939;56.522;14.950;2023-04-06T00:08:26;4.10;99.90
11764;DHT22;5939;56.522;14.950;2023-04-06T00:10:52;4.00;99.90
11764;DHT22;5939;56.522;14.950;2023-04-06T00:13:18;4.10;99.90
11764;DHT22;5939;56.522;14.950;2023-04-06T00:15:43;4.00;99.90
11764;DHT22;5939;56.522;14.950;2023-04-06T00:18:09;4.00;99.90
11764;DHT22;5939;56.522;14.950;2023-04-06T00:20:35;4.00;99.90
11764;DHT22;5939;56.522;14.950;2023-04-06T00:23:00;4.00;99.90
11764;DHT22;5939;56.522;14.950;2023-04-06T00:25:26;3.90;99.90
11764;DHT22;5939;56.522;14.950;2023-04-06T00:27:52;4.00;99.90
11764;DHT22;5939;56.522;14.950;2023-04-06T00:30:18;3.90;99.90
11764;DHT22;5939;56.522;14.950;2023-04-06T00:32:43;3.90;99.90
11764;DHT22;5939;56.522;14.950;2023-04-06T00:35:09;3.90;99.90
11764;DHT22;5939;56.522;14.950;2023-04-06T00:37:36;3.90;99.90
11764;DHT22;5939;56.522;14.950;2023-04-06T00:40:02;3.90;99.90
11764;DHT22;5939;56.522;14.950;2023-04-06T00:42:28;3.90;99.90
11764;DHT22;5939;56.522;14.950;2023-04-06T00:44:54;3.90;99.90
11764;DHT22;5939;56.522;14.950;2023-04-06T00:47:21;3.90;99.90
11764;DHT22;5939;56.522;14.950;2023-04-06T00:49:48;3.90;99.90
11764;DHT22;5939;56.522;14.950;2023-04-06T00:52:14;3.90;99.90
11764;DHT22;5939;56.522;14.950;2023-04-06T00:54:40;4.00;99.90
11764;DHT22;5939;56.522;14.950;2023-04-06T00:57:06;4.10;99.90
11764;DHT22;5939;56.522;14.950;2023-04-06T00:59:32;3.90;99.90
11764;DHT22;5939;56.522;14.950;2023-04-06T01:01:58;3.90;99.90
11764;DHT22;5939;56.522;14.950;2023-04-06T01:04:23;3.80;99.90
11764;DHT22;5939;56.522;14.950;2023-04-06T01:06:50;4.20;99.90
11764;DHT22;5939;56.522;14.950;2023-04-06T01:09:17;3.80;99.90
11764;DHT22;5939;56.522;14.950;2023-04-06T01:11:42;3.90;99.90
11764;DHT22;5939;56.522;14.950;2023-04-06T01:14:09;3.80;99.90
11764;DHT22;5939;56.522;14.950;2023-04-06T01:16:35;3.80;99.90
11764;DHT22;5939;56.522;14.950;2023-04-06T01:19:01;3.90;99.90
11764;DHT22;5939;56.522;14.950;2023-04-06T01:21:27;3.80;99.90
11764;DHT22;5939;56.522;14.950;2023-04-06T01:23:52;3.80;99.90
11764;DHT22;5939;56.522;14.950;2023-04-06T01:26:18;3.90;99.90
11764;DHT22;5939;56.522;14.950;2023-04-06T01:28:44;3.80;99.90
11764;DHT22;5939;56.522;14.950;2023-04-06T01:31:10;3.80;99.90
11764;DHT22;5939;56.522;14.950;2023-04-06T01:33:36;3.80;99.90
11764;DHT22;5939;56.522;14.950;2023-04-06T01:36:02;3.80;99.90
11764;DHT22;5939;56.522;14.950;2023-04-06T01:38:28;3.80;99.90
11764;DHT22;5939;56.522;14.950;2023-04-06T01:40:54;3.80;99.90
11764;DHT22;5939;56.522;14.950;2023-04-06T01:43:20;3.80;99.90
11764;DHT22;5939;56.522;14.950;2023-04-06T01:45:46;3.70;99.90
11764;DHT22;5939;56.522;14.950;2023-04-06T01:48:11;3.80;99.90
11764;DHT22;5939;56.522;14.950;2023-04-06T01:50:37;3.80;99.90
11764;DHT22;5939;56.522;14.950;2023-04-06T01:53:03;3.70;99.90
11764;DHT22;5939;56.522;14.950;2023-04-06T01:55:28;3.80;99.90
11764;DHT22;5939;56.522;14.950;2023-04-06T01:57:54;3.70;99.90
11764;DHT22;5939;56.522;14.950;2023-04-06T02:00:20;3.70;99.90
11764;DHT22;5939;56.522;14.950;2023-04-06T02:02:45;3.70;99.90
11764;DHT22;5939;56.522;14.950;2023-04-06T02:05:11;3.70;99.90
11764;DHT22;5939;56.522;14.950;2023-04-06T02:07:37;3.70;99.90
11764;DHT22;5939;56.522;14.950;2023-04-06T02:10:03;3.80;99.90
11764;DHT22;5939;56.522;14.950;2023-04-06T02:12:29;3.70;99.90
11764;DHT22;5939;56.522;14.950;2023-04-06T02:14:54;4.00;99.90
11764;DHT22;5939;56.522;14.950;2023-04-06T02:17:20;3.70;99.90
11764;DHT22;5939;56.522;14.950;2023-04-06T02:19:46;3.70;99.90
11764;DHT22;5939;56.522;14.950;2023-04-06T02:22:12;3.70;99.90
11764;DHT22;5939;56.522;14.950;2023-04-06T02:24:37;3.70;99.90
11764;DHT22;5939;56.522;14.950;2023-04-06T02:27:03;4.10;99.90
11764;DHT22;5939;56.522;14.950;2023-04-06T02:29:28;3.80;99.90
11764;DHT22;5939;56.522;14.950;2023-04-06T02:31:54;3.60;99.90
11764;DHT22;5939;56.522;14.950;2023-04-06T02:34:20;4.00;99.90
11764;DHT22;5939;56.522;14.950;2023-04-06T02:36:46;3.60;99.90
11764;DHT22;5939;56.522;14.950;2023-04-06T02:39:13;3.60;99.90
11764;DHT22;5939;56.522;14.950;2023-04-06T02:41:39;3.70;99.90
11764;DHT22;5939;56.522;14.950;2023-04-06T02:44:07;3.60;99.90
11764;DHT22;5939;56.522;14.950;2023-04-06T02:46:33;3.80;99.90
11764;DHT22;5939;56.522;14.950;2023-04-06T02:48:59;3.80;99.90
11764;DHT22;5939;56.522;14.950;2023-04-06T02:51:28;3.60;99.90
11764;DHT22;5939;56.522;14.950;2023-04-06T02:53:54;3.70;99.90
11764;DHT22;5939;56.522;14.950;2023-04-06T02:56:20;3.60;99.90
11764;DHT22;5939;56.522;14.950;2023-04-06T02:58:48;3.60;99.90
11764;DHT22;5939;56.522;14.950;2023-04-06T03:01:14;3.60;99.90
11764;DHT22;5939;56.522;14.950;2023-04-06T03:03:40;3.60;99.90
11764;DHT22;5939;56.522;14.950;2023-04-06T03:06:06;3.60;99.90
11764;DHT22;5939;56.522;14.950;2023-04-06T03:08:31;3.60;99.90
11764;DHT22;5939;56.522;14.950;2023-04-06T03:10:57;3.70;99.90
11764;DHT22;5939;56.522;14.950;2023-04-06T03:13:23;3.60;99.90
11764;DHT22;5939;56.522;14.950;2023-04-06T03:15:48;3.60;99.90
11764;DHT22;5939;56.522;14.950;2023-04-06T03:18:14;3.60;99.90
11764;DHT22;5939;56.522;14.950;2023-04-06T03:20:39;3.50;99.90
11764;DHT22;5939;56.522;14.950;2023-04-06T03:23:05;3.50;99.90
11764;DHT22;5939;56.522;14.950;2023-04-06T03:25:31;3.50;99.90
11764;DHT22;5939;56.522;14.950;2023-04-06T03:27:57;3.60;99.90
11764;DHT22;5939;56.522;14.950;2023-04-06T03:30:22;3.50;99.90
11764;DHT22;5939;56.522;14.950;2023-04-06T03:32:48;3.50;99.90
11764;DHT22;5939;56.522;14.950;2023-04-06T03:35:14;3.50;99.90
11764;DHT22;5939;56.522;14.950;2023-04-06T03:37:39;3.60;99.90
11764;DHT22;5939;56.522;14.950;2023-04-06T03:40:05;4.00;99.90
11764;DHT22;5939;56.522;14.950;2023-04-06T03:42:31;3.50;99.90
11764;DHT22;5939;56.522;14.950;2023-04-06T03:44:58;3.50;99.90
11764;DHT22;5939;56.522;14.950;2023-04-06T03:47:24;3.90;99.90
11764;DHT22;5939;56.522;14.950;2023-04-06T03:49:50;3.50;99.90
11764;DHT22;5939;56.522;14.950;2023-04-06T03:52:16;3.50;99.90
11764;DHT22;5939;56.522;14.950;2023-04-06T03:54:41;3.50;99.90
11764;DHT22;5939;56.522;14.950;2023-04-06T03:57:07;3.50;99.90
11764;DHT22;5939;56.522;14.950;2023-04-06T03:59:33;3.50;99.90
11764;DHT22;5939;56.522;14.950;2023-04-06T04:01:58;3.50;99.90
11764;DHT22;5939;56.522;14.950;2023-04-06T04:04:24;3.50;99.90
11764;DHT22;5939;56.522;14.950;2023-04-06T04:06:50;3.40;99.90
11764;DHT22;5939;56.522;14.950;2023-04-06T04:09:15;3.40;99.90
11764;DHT22;5939;56.522;14.950;2023-04-06T04:11:41;3.60;99.90
11764;DHT22;5939;56.522;14.950;2023-04-06T04:14:07;3.50;99.90
11764;DHT22;5939;56.522;14.950;2023-04-06T04:16:32;3.60;99.90
11764;DHT22;5939;56.522;14.950;2023-04-06T04:18:58;3.50;99.90
11764;DHT22;5939;56.522;14.950;2023-04-06T04:21:24;4.10;99.90
11764;DHT22;5939;56.522;14.950;2023-04-06T04:23:51;3.40;99.90
11764;DHT22;5939;56.522;14.950;2023-04-06T04:26:18;3.40;99.90
11764;DHT22;5939;56.522;14.950;2023-04-06T04:28:43;3.90;99.90
11764;DHT22;5939;56.522;14.950;2023-04-06T04:31:09;3.50;99.90
11764;DHT22;5939;56.522;14.950;2023-04-06T04:33:35;3.70;99.90
11764;DHT22;5939;56.522;14.950;2023-04-06T04:36:01;3.40;99.90
11764;DHT22;5939;56.522;14.950;2023-04-06T04:38:27;3.40;99.90
11764;DHT22;5939;56.522;14.950;2023-04-06T04:40:53;3.40;99.90
11764;DHT22;5939;56.522;14.950;2023-04-06T04:43:18;3.40;99.90
11764;DHT22;5939;56.522;14.950;2023-04-06T04:45:44;3.40;99.90
11764;DHT22;5939;56.522;14.950;2023-04-06T04:48:10;3.40;99.90
11764;DHT22;5939;56.522;14.950;2023-04-06T04:50:35;3.40;99.90
11764;DHT22;5939;56.522;14.950;2023-04-06T04:53:01;3.40;99.90
11764;DHT22;5939;56.522;14.950;2023-04-06T04:55:28;3.80;99.90
11764;DHT22;5939;56.522;14.950;2023-04-06T04:57:54;3.40;99.90
11764;DHT22;5939;56.522;14.950;2023-04-06T05:00:20;3.60;99.90
11764;DHT22;5939;56.522;14.950;2023-04-06T05:02:46;3.30;99.90
11764;DHT22;5939;56.522;14.950;2023-04-06T05:05:11;3.40;99.90
11764;DHT22;5939;56.522;14.950;2023-04-06T05:07:37;3.40;99.90
11764;DHT22;5939;56.522;14.950;2023-04-06T05:10:03;3.30;99.90
11764;DHT22;5939;56.522;14.950;2023-04-06T05:12:29;3.40;99.90
11764;DHT22;5939;56.522;14.950;2023-04-06T05:14:54;3.40;99.90
11764;DHT22;5939;56.522;14.950;2023-04-06T05:17:20;3.30;99.90
11764;DHT22;5939;56.522;14.950;2023-04-06T05:19:46;3.30;99.90
11764;DHT22;5939;56.522;14.950;2023-04-06T05:22:11;3.50;99.90
11764;DHT22;5939;56.522;14.950;2023-04-06T05:24:39;3.30;99.90
11764;DHT22;5939;56.522;14.950;2023-04-06T05:27:05;3.30;99.90
11764;DHT22;5939;56.522;14.950;2023-04-06T05:29:31;3.30;99.90
11764;DHT22;5939;56.522;14.950;2023-04-06T05:31:57;3.30;99.90
11764;DHT22;5939;56.522;14.950;2023-04-06T05:34:23;3.40;99.90
11764;DHT22;5939;56.522;14.950;2023-04-06T05:36:48;3.30;99.90
11764;DHT22;5939;56.522;14.950;2023-04-06T05:39:14;3.30;99.90
11764;DHT22;5939;56.522;14.950;2023-04-06T05:41:40;3.40;99.90
11764;DHT22;5939;56.522;14.950;2023-04-06T05:44:06;3.50;99.90
11764;DHT22;5939;56.522;14.950;2023-04-06T05:46:32;3.30;99.90
11764;DHT22;5939;56.522;14.950;2023-04-06T05:48:57;3.70;99.90
11764;DHT22;5939;56.522;14.950;2023-04-06T05:51:23;3.30;99.90
11764;DHT22;5939;56.522;14.950;2023-04-06T05:53:49;3.30;99.90
11764;DHT22;5939;56.522;14.950;2023-04-06T05:56:15;3.40;99.90
11764;DHT22;5939;56.522;14.950;2023-04-06T05:58:41;3.30;99.90
11764;DHT22;5939;56.522;14.950;2023-04-06T06:01:06;3.40;99.90
11764;DHT22;5939;56.522;14.950;2023-04-06T06:03:32;3.40;99.90
11764;DHT22;5939;56.522;14.950;2023-04-06T06:06:01;3.40;99.90
11764;DHT22;5939;56.522;14.950;2023-04-06T06:08:28;3.50;99.90
11764;DHT22;5939;56.522;14.950;2023-04-06T06:10:54;3.40;99.90
11764;DHT22;5939;56.522;14.950;2023-04-06T06:13:19;3.50;99.90
11764;DHT22;5939;56.522;14.950;2023-04-06T06:15:45;3.60;99.90
11764;DHT22;5939;56.522;14.950;2023-04-06T06:18:11;3.60;99.90
11764;DHT22;5939;56.522;14.950;2023-04-06T06:20:37;3.70;99.90
11764;DHT22;5939;56.522;14.950;2023-04-06T06:23:02;3.80;99.90
11764;DHT22;5939;56.522;14.950;2023-04-06T06:25:28;3.80;99.90
11764;DHT22;5939;56.522;14.950;2023-04-06T06:27:56;3.90;99.90
11764;DHT22;5939;56.522;14.950;2023-04-06T06:30:22;4.00;99.90
11764;DHT22;5939;56.522;14.950;2023-04-06T06:32:48;4.10;99.90
11764;DHT22;5939;56.522;14.950;2023-04-06T06:35:14;4.10;99.90
11764;DHT22;5939;56.522;14.950;2023-04-06T06:37:39;4.20;99.90
11764;DHT22;5939;56.522;14.950;2023-04-06T06:40:05;4.30;99.90
11764;DHT22;5939;56.522;14.950;2023-04-06T06:42:31;4.40;99.90
11764;DHT22;5939;56.522;14.950;2023-04-06T06:44:57;4.50;99.90
11764;DHT22;5939;56.522;14.950;2023-04-06T06:47:22;4.50;99.90
11764;DHT22;5939;56.522;14.950;2023-04-06T06:49:48;4.60;99.90
11764;DHT22;5939;56.522;14.950;2023-04-06T06:52:14;4.80;99.90
11764;DHT22;5939;56.522;14.950;2023-04-06T06:54:40;4.80;99.90
11764;DHT22;5939;56.522;14.950;2023-04-06T06:57:05;4.90;99.90
11764;DHT22;5939;56.522;14.950;2023-04-06T06:59:31;5.00;99.90
11764;DHT22;5939;56.522;14.950;2023-04-06T07:01:56;5.10;99.90
11764;DHT22;5939;56.522;14.950;2023-04-06T07:04:22;5.20;99.90
11764;DHT22;5939;56.522;14.950;2023-04-06T07:06:48;5.30;99.90
11764;DHT22;5939;56.522;14.950;2023-04-06T07:09:13;5.40;99.90
11764;DHT22;5939;56.522;14.950;2023-04-06T07:11:39;5.50;99.90
11764;DHT22;5939;56.522;14.950;2023-04-06T07:14:05;5.60;99.90
11764;DHT22;5939;56.522;14.950;2023-04-06T07:16:30;5.70;99.90
11764;DHT22;5939;56.522;14.950;2023-04-06T07:18:56;5.80;99.90
11764;DHT22;5939;56.522;14.950;2023-04-06T07:21:22;5.90;99.90
11764;DHT22;5939;56.522;14.950;2023-04-06T07:23:47;6.00;99.90
11764;DHT22;5939;56.522;14.950;2023-04-06T07:26:14;6.10;99.90
11764;DHT22;5939;56.522;14.950;2023-04-06T07:28:39;6.10;99.90
11764;DHT22;5939;56.522;14.950;2023-04-06T07:31:05;6.20;99.90
11764;DHT22;5939;56.522;14.950;2023-04-06T07:33:31;6.30;99.90
11764;DHT22;5939;56.522;14.950;2023-04-06T07:35:57;6.40;99.90
11764;DHT22;5939;56.522;14.950;2023-04-06T07:38:24;6.50;99.90
11764;DHT22;5939;56.522;14.950;2023-04-06T07:40:50;6.60;99.90
11764;DHT22;5939;56.522;14.950;2023-04-06T07:43:15;6.70;99.90
11764;DHT22;5939;56.522;14.950;2023-04-06T07:45:41;6.80;99.90
11764;DHT22;5939;56.522;14.950;2023-04-06T07:48:07;6.80;99.90
11764;DHT22;5939;56.522;14.950;2023-04-06T07:50:33;6.90;99.90
11764;DHT22;5939;56.522;14.950;2023-04-06T07:52:58;7.00;99.90
11764;DHT22;5939;56.522;14.950;2023-04-06T07:55:25;7.10;99.90
11764;DHT22;5939;56.522;14.950;2023-04-06T07:57:50;7.20;99.90
11764;DHT22;5939;56.522;14.950;2023-04-06T08:00:16;7.30;99.90
11764;DHT22;5939;56.522;14.950;2023-04-06T08:02:42;7.30;99.90
11764;DHT22;5939;56.522;14.950;2023-04-06T08:05:08;7.50;99.90
11764;DHT22;5939;56.522;14.950;2023-04-06T08:07:34;7.50;99.90
11764;DHT22;5939;56.522;14.950;2023-04-06T08:10:01;7.60;99.90
11764;DHT22;5939;56.522;14.950;2023-04-06T08:12:26;7.70;99.90
11764;DHT22;5939;56.522;14.950;2023-04-06T08:14:52;7.80;99.90
11764;DHT22;5939;56.522;14.950;2023-04-06T08:17:18;7.90;99.90
11764;DHT22;5939;56.522;14.950;2023-04-06T08:19:44;8.00;99.90
11764;DHT22;5939;56.522;14.950;2023-04-06T08:22:11;8.10;99.90
11764;DHT22;5939;56.522;14.950;2023-04-06T08:24:36;8.10;99.90
11764;DHT22;5939;56.522;14.950;2023-04-06T08:27:02;8.20;99.90
11764;DHT22;5939;56.522;14.950;2023-04-06T08:29:28;8.30;99.90
11764;DHT22;5939;56.522;14.950;2023-04-06T08:31:54;8.30;99.90
11764;DHT22;5939;56.522;14.950;2023-04-06T08:34:21;8.40;99.90
11764;DHT22;5939;56.522;14.950;2023-04-06T08:36:46;8.50;99.90
11764;DHT22;5939;56.522;14.950;2023-04-06T08:39:12;8.50;99.90
11764;DHT22;5939;56.522;14.950;2023-04-06T08:41:41;8.60;99.90
11764;DHT22;5939;56.522;14.950;2023-04-06T08:44:07;8.60;99.90
11764;DHT22;5939;56.522;14.950;2023-04-06T08:46:33;8.70;99.90
11764;DHT22;5939;56.522;14.950;2023-04-06T08:49:01;8.70;99.90
11764;DHT22;5939;56.522;14.950;2023-04-06T08:51:28;8.80;99.90
11764;DHT22;5939;56.522;14.950;2023-04-06T08:53:55;8.90;99.90
11764;DHT22;5939;56.522;14.950;2023-04-06T08:56:24;8.90;99.90
11764;DHT22;5939;56.522;14.950;2023-04-06T08:58:52;9.00;99.90
11764;DHT22;5939;56.522;14.950;2023-04-06T09:01:21;9.00;99.90
11764;DHT22;5939;56.522;14.950;2023-04-06T09:03:49;9.10;99.90
11764;DHT22;5939;56.522;14.950;2023-04-06T09:06:15;9.10;99.90
11764;DHT22;5939;56.522;14.950;2023-04-06T09:08:41;9.10;99.90
11764;DHT22;5939;56.522;14.950;2023-04-06T09:11:08;9.10;99.90
11764;DHT22;5939;56.522;14.950;2023-04-06T09:13:54;9.10;99.90
11764;DHT22;5939;56.522;14.950;2023-04-06T09:16:21;9.20;99.90
11764;DHT22;5939;56.522;14.950;2023-04-06T09:18:47;9.10;99.90
11764;DHT22;5939;56.522;14.950;2023-04-06T09:21:16;9.10;99.90
11764;DHT22;5939;56.522;14.950;2023-04-06T09:23:42;9.10;99.90
11764;DHT22;5939;56.522;14.950;2023-04-06T09:26:09;9.10;99.90
11764;DHT22;5939;56.522;14.950;2023-04-06T09:28:50;9.10;99.90
11764;DHT22;5939;56.522;14.950;2023-04-06T09:31:21;9.00;99.90
11764;DHT22;5939;56.522;14.950;2023-04-06T09:33:46;9.00;99.90
11764;DHT22;5939;56.522;14.950;2023-04-06T09:36:13;9.10;99.90
11764;DHT22;5939;56.522;14.950;2023-04-06T09:38:57;9.10;99.90
11764;DHT22;5939;56.522;14.950;2023-04-06T09:41:28;9.10;99.90
11764;DHT22;5939;56.522;14.950;2023-04-06T09:44:04;9.10;99.90
11764;DHT22;5939;56.522;14.950;2023-04-06T09:46:38;9.10;99.90
11764;DHT22;5939;56.522;14.950;2023-04-06T09:49:06;9.10;99.90
11764;DHT22;5939;56.522;14.950;2023-04-06T09:52:25;9.00;99.90
11764;DHT22;5939;56.522;14.950;2023-04-06T09:54:46;9.00;99.90
11764;DHT22;5939;56.522;14.950;2023-04-06T10:00:07;9.00;99.90
11764;DHT22;5939;56.522;14.950;2023-04-06T10:02:54;9.00;99.90
11764;DHT22;5939;56.522;14.950;2023-04-06T10:08:10;9.00;99.90
11764;DHT22;5939;56.522;14.950;2023-04-06T10:10:36;9.10;99.90
11764;DHT22;5939;56.522;14.950;2023-04-06T10:13:04;9.10;99.90
11764;DHT22;5939;56.522;14.950;2023-04-06T10:15:30;9.10;99.90
11764;DHT22;5939;56.522;14.950;2023-04-06T10:18:00;9.00;99.90
11764;DHT22;5939;56.522;14.950;2023-04-06T10:20:31;9.00;99.90
11764;DHT22;5939;56.522;14.950;2023-04-06T10:23:13;9.00;99.90
11764;DHT22;5939;56.522;14.950;2023-04-06T10:25:52;9.00;99.90
11764;DHT22;5939;56.522;14.950;2023-04-06T10:28:19;9.00;99.90
11764;DHT22;5939;56.522;14.950;2023-04-06T10:30:45;9.00;99.90
11764;DHT22;5939;56.522;14.950;2023-04-06T10:33:19;9.00;99.90
11764;DHT22;5939;56.522;14.950;2023-04-06T10:35:45;9.00;99.90
11764;DHT22;5939;56.522;14.950;2023-04-06T10:38:11;9.00;99.90
11764;DHT22;5939;56.522;14.950;2023-04-06T10:40:40;9.00;99.90
11764;DHT22;5939;56.522;14.950;2023-04-06T10:43:20;9.10;99.90
11764;DHT22;5939;56.522;14.950;2023-04-06T10:45:59;9.10;99.90
11764;DHT22;5939;56.522;14.950;2023-04-06T10:48:24;9.20;99.90
11764;DHT22;5939;56.522;14.950;2023-04-06T10:50:52;9.20;99.90
11764;DHT22;5939;56.522;14.950;2023-04-06T10:53:26;9.30;99.90
11764;DHT22;5939;56.522;14.950;2023-04-06T10:55:54;9.30;99.90
11764;DHT22;5939;56.522;14.950;2023-04-06T10:58:20;9.40;99.90
11764;DHT22;5939;56.522;14.950;2023-04-06T11:00:47;9.40;99.90
11764;DHT22;5939;56.522;14.950;2023-04-06T11:03:13;9.50;99.90
11764;DHT22;5939;56.522;14.950;2023-04-06T11:05:46;9.50;99.90
11764;DHT22;5939;56.522;14.950;2023-04-06T11:08:31;9.60;99.90
11764;DHT22;5939;56.522;14.950;2023-04-06T11:11:07;9.70;99.90
11764;DHT22;5939;56.522;14.950;2023-04-06T11:13:38;9.70;99.90
11764;DHT22;5939;56.522;14.950;2023-04-06T11:16:04;9.80;99.90
11764;DHT22;5939;56.522;14.950;2023-04-06T11:18:31;9.80;99.90
11764;DHT22;5939;56.522;14.950;2023-04-06T11:20:57;9.90;99.90
11764;DHT22;5939;56.522;14.950;2023-04-06T11:23:24;9.90;99.90
11764;DHT22;5939;56.522;14.950;2023-04-06T11:25:54;10.00;99.90
11764;DHT22;5939;56.522;14.950;2023-04-06T11:28:20;10.10;99.90
11764;DHT22;5939;56.522;14.950;2023-04-06T11:30:46;10.10;99.90
11764;DHT22;5939;56.522;14.950;2023-04-06T11:33:20;10.20;99.90
11764;DHT22;5939;56.522;14.950;2023-04-06T11:35:46;10.30;99.90
11764;DHT22;5939;56.522;14.950;2023-04-06T11:38:12;10.40;99.90
11764;DHT22;5939;56.522;14.950;2023-04-06T11:40:38;10.40;99.90
11764;DHT22;5939;56.522;14.950;2023-04-06T11:43:04;10.50;99.90
11764;DHT22;5939;56.522;14.950;2023-04-06T11:45:42;10.50;99.90
11764;DHT22;5939;56.522;14.950;2023-04-06T11:48:18;10.60;99.90
11764;DHT22;5939;56.522;14.950;2023-04-06T11:50:46;10.60;99.90
11764;DHT22;5939;56.522;14.950;2023-04-06T11:53:13;10.60;99.90
11764;DHT22;5939;56.522;14.950;2023-04-06T11:55:38;10.70;99.90
11764;DHT22;5939;56.522;14.950;2023-04-06T11:58:05;10.60;99.90
11764;DHT22;5939;56.522;14.950;2023-04-06T12:00:32;10.70;99.90
11764;DHT22;5939;56.522;14.950;2023-04-06T12:03:00;10.70;99.90
11764;DHT22;5939;56.522;14.950;2023-04-06T12:05:26;10.70;99.90
11764;DHT22;5939;56.522;14.950;2023-04-06T12:07:52;10.70;99.90
11764;DHT22;5939;56.522;14.950;2023-04-06T12:10:18;10.70;99.90
11764;DHT22;5939;56.522;14.950;2023-04-06T12:12:43;10.80;99.90
11764;DHT22;5939;56.522;14.950;2023-04-06T12:15:09;10.80;99.90
11764;DHT22;5939;56.522;14.950;2023-04-06T12:17:35;10.80;99.90
11764;DHT22;5939;56.522;14.950;2023-04-06T12:20:03;10.80;99.90
11764;DHT22;5939;56.522;14.950;2023-04-06T12:22:29;10.80;99.90
11764;DHT22;5939;56.522;14.950;2023-04-06T12:24:54;10.80;99.90
11764;DHT22;5939;56.522;14.950;2023-04-06T12:27:20;10.70;99.90
11764;DHT22;5939;56.522;14.950;2023-04-06T12:29:47;10.70;99.90
11764;DHT22;5939;56.522;14.950;2023-04-06T12:32:12;10.70;99.90
11764;DHT22;5939;56.522;14.950;2023-04-06T12:34:38;10.70;99.90
11764;DHT22;5939;56.522;14.950;2023-04-06T12:37:04;10.60;99.90
11764;DHT22;5939;56.522;14.950;2023-04-06T12:39:30;10.60;99.90
11764;DHT22;5939;56.522;14.950;2023-04-06T12:41:56;10.60;99.90
11764;DHT22;5939;56.522;14.950;2023-04-06T12:44:22;10.60;99.90
11764;DHT22;5939;56.522;14.950;2023-04-06T12:46:48;10.50;99.90
11764;DHT22;5939;56.522;14.950;2023-04-06T12:49:14;10.50;99.90
11764;DHT22;5939;56.522;14.950;2023-04-06T12:51:42;10.40;99.90
11764;DHT22;5939;56.522;14.950;2023-04-06T12:54:07;10.40;99.90
11764;DHT22;5939;56.522;14.950;2023-04-06T12:56:33;10.40;99.90
11764;DHT22;5939;56.522;14.950;2023-04-06T12:58:59;10.30;99.90
11764;DHT22;5939;56.522;14.950;2023-04-06T13:01:24;10.20;99.90
11764;DHT22;5939;56.522;14.950;2023-04-06T13:03:51;10.20;99.90
11764;DHT22;5939;56.522;14.950;2023-04-06T13:06:17;10.20;99.90
11764;DHT22;5939;56.522;14.950;2023-04-06T13:08:43;10.10;99.90
11764;DHT22;5939;56.522;14.950;2023-04-06T13:11:08;10.10;99.90
11764;DHT22;5939;56.522;14.950;2023-04-06T13:13:35;10.00;99.90
11764;DHT22;5939;56.522;14.950;2023-04-06T13:16:04;10.00;99.90
11764;DHT22;5939;56.522;14.950;2023-04-06T13:18:30;9.90;99.90
11764;DHT22;5939;56.522;14.950;2023-04-06T13:20:58;9.90;99.90
11764;DHT22;5939;56.522;14.950;2023-04-06T13:23:25;9.90;99.90
11764;DHT22;5939;56.522;14.950;2023-04-06T13:26:01;9.80;99.90
11764;DHT22;5939;56.522;14.950;2023-04-06T13:28:28;9.80;99.90
11764;DHT22;5939;56.522;14.950;2023-04-06T13:30:55;9.70;99.90
11764;DHT22;5939;56.522;14.950;2023-04-06T13:33:21;9.70;99.90
11764;DHT22;5939;56.522;14.950;2023-04-06T13:35:47;9.60;99.90
11764;DHT22;5939;56.522;14.950;2023-04-06T13:38:15;9.60;99.90
11764;DHT22;5939;56.522;14.950;2023-04-06T13:40:41;9.60;99.90
11764;DHT22;5939;56.522;14.950;2023-04-06T13:43:07;9.50;99.90
11764;DHT22;5939;56.522;14.950;2023-04-06T13:45:33;9.50;99.90
11764;DHT22;5939;56.522;14.950;2023-04-06T13:47:59;9.40;99.90
11764;DHT22;5939;56.522;14.950;2023-04-06T13:50:26;9.40;99.90
11764;DHT22;5939;56.522;14.950;2023-04-06T13:52:52;9.40;99.90
11764;DHT22;5939;56.522;14.950;2023-04-06T13:55:18;9.30;99.90
11764;DHT22;5939;56.522;14.950;2023-04-06T13:57:43;9.30;99.90
11764;DHT22;5939;56.522;14.950;2023-04-06T14:00:10;9.30;99.90
11764;DHT22;5939;56.522;14.950;2023-04-06T14:02:38;9.30;99.90
11764;DHT22;5939;56.522;14.950;2023-04-06T14:05:04;9.20;99.90
11764;DHT22;5939;56.522;14.950;2023-04-06T14:07:30;9.20;99.90
11764;DHT22;5939;56.522;14.950;2023-04-06T14:09:56;9.20;99.90
11764;DHT22;5939;56.522;14.950;2023-04-06T14:12:22;9.10;99.90
11764;DHT22;5939;56.522;14.950;2023-04-06T14:14:47;9.10;99.90
11764;DHT22;5939;56.522;14.950;2023-04-06T14:17:13;9.00;99.90
11764;DHT22;5939;56.522;14.950;2023-04-06T14:19:39;9.00;99.90
11764;DHT22;5939;56.522;14.950;2023-04-06T14:22:05;9.00;99.90
11764;DHT22;5939;56.522;14.950;2023-04-06T14:24:31;9.00;99.90
11764;DHT22;5939;56.522;14.950;2023-04-06T14:26:57;8.90;99.90
11764;DHT22;5939;56.522;14.950;2023-04-06T14:29:23;8.90;99.90
11764;DHT22;5939;56.522;14.950;2023-04-06T14:31:48;8.90;99.90
11764;DHT22;5939;56.522;14.950;2023-04-06T14:34:14;8.80;99.90
11764;DHT22;5939;56.522;14.950;2023-04-06T14:36:42;8.80;99.90
11764;DHT22;5939;56.522;14.950;2023-04-06T14:39:08;8.80;99.90
11764;DHT22;5939;56.522;14.950;2023-04-06T14:41:35;8.80;99.90
11764;DHT22;5939;56.522;14.950;2023-04-06T14:44:01;8.70;99.90
11764;DHT22;5939;56.522;14.950;2023-04-06T14:46:27;8.70;99.90
11764;DHT22;5939;56.522;14.950;2023-04-06T14:48:57;8.70;99.90
11764;DHT22;5939;56.522;14.950;2023-04-06T14:51:26;8.60;99.90
11764;DHT22;5939;56.522;14.950;2023-04-06T14:53:53;8.60;99.90
11764;DHT22;5939;56.522;14.950;2023-04-06T14:56:23;8.60;99.90
11764;DHT22;5939;56.522;14.950;2023-04-06T14:58:50;8.60;99.90
11764;DHT22;5939;56.522;14.950;2023-04-06T15:01:19;8.60;99.90
11764;DHT22;5939;56.522;14.950;2023-04-06T15:03:46;8.50;99.90
11764;DHT22;5939;56.522;14.950;2023-04-06T15:06:15;8.50;99.90
11764;DHT22;5939;56.522;14.950;2023-04-06T15:08:44;8.50;99.90
11764;DHT22;5939;56.522;14.950;2023-04-06T15:11:11;8.40;99.90
11764;DHT22;5939;56.522;14.950;2023-04-06T15:13:37;8.40;99.90
11764;DHT22;5939;56.522;14.950;2023-04-06T15:16:04;8.50;99.90
11764;DHT22;5939;56.522;14.950;2023-04-06T15:18:30;8.40;99.90
11764;DHT22;5939;56.522;14.950;2023-04-06T15:20:56;8.30;99.90
11764;DHT22;5939;56.522;14.950;2023-04-06T15:23:21;8.30;99.90
11764;DHT22;5939;56.522;14.950;2023-04-06T15:25:47;8.30;99.90
11764;DHT22;5939;56.522;14.950;2023-04-06T15:28:13;8.30;99.90
11764;DHT22;5939;56.522;14.950;2023-04-06T15:30:39;8.40;99.90
11764;DHT22;5939;56.522;14.950;2023-04-06T15:33:07;8.20;99.90
11764;DHT22;5939;56.522;14.950;2023-04-06T15:35:33;8.20;99.90
11764;DHT22;5939;56.522;14.950;2023-04-06T15:38:08;8.20;99.90
11764;DHT22;5939;56.522;14.950;2023-04-06T15:40:42;8.10;99.90
11764;DHT22;5939;56.522;14.950;2023-04-06T15:43:08;8.20;99.90
11764;DHT22;5939;56.522;14.950;2023-04-06T15:45:34;8.20;99.90
11764;DHT22;5939;56.522;14.950;2023-04-06T15:48:00;8.10;99.90